createdAt,value
2022-08-28T00:09:17.050Z,78
2022-08-28T00:19:17.374Z,78
2022-08-28T00:29:17.984Z,79
2022-08-28T00:39:19.039Z,80
2022-08-28T00:59:19.905Z,80
2022-08-28T01:09:20.802Z,81
2022-08-28T01:19:20.708Z,81
2022-08-28T01:29:21.136Z,81
2022-08-28T01:39:21.913Z,81
2022-08-28T01:49:22.597Z,81
2022-08-28T01:59:23.406Z,82
2022-08-28T02:09:23.984Z,83
2022-08-28T02:19:24.262Z,83
2022-08-28T02:39:25.270Z,84
2022-08-28T02:49:25.846Z,85
2022-08-28T03:09:26.578Z,85
2022-08-28T03:19:27.575Z,86
2022-08-28T03:29:28.016Z,87
2022-08-28T03:39:28.271Z,88
2022-08-28T03:49:28.692Z,89
2022-08-28T03:59:29.779Z,89
2022-08-28T04:09:30.241Z,89
2022-08-28T04:19:30.504Z,90
2022-08-28T04:29:30.602Z,91
2022-08-28T04:39:31.170Z,91
2022-08-28T04:49:31.387Z,92
2022-08-28T05:09:32.636Z,93
2022-08-28T05:19:32.943Z,93
2022-08-28T05:29:33.394Z,94
2022-08-28T05:39:33.925Z,94
2022-08-28T05:59:35.190Z,94
2022-08-28T06:19:39.404Z,91
2022-08-28T06:39:37.403Z,89
2022-08-28T06:49:37.793Z,88
2022-08-28T06:59:38.112Z,87
2022-08-28T07:09:39.135Z,86
2022-08-28T07:19:39.593Z,84
2022-08-28T07:29:40.121Z,80
2022-08-28T07:39:40.245Z,79
2022-08-28T07:49:40.643Z,78
2022-08-28T07:59:40.963Z,76
2022-08-28T08:19:41.996Z,70
2022-08-28T08:29:42.741Z,68
2022-08-28T08:39:43.113Z,67
2022-08-28T08:49:44.096Z,67
2022-08-28T08:59:44.763Z,66
2022-08-28T09:00:06.636Z,66
2022-08-28T09:09:50.487Z,66
2022-08-28T09:19:51.101Z,63
2022-08-28T09:29:51.653Z,63
2022-08-28T09:39:52.406Z,61
2022-08-28T09:59:53.196Z,59
2022-08-28T10:09:53.313Z,57
2022-08-28T10:19:54.145Z,58
2022-08-28T10:29:54.495Z,58
2022-08-28T10:39:54.759Z,57
2022-08-28T10:49:55.506Z,57
2022-08-28T10:59:55.633Z,53
2022-08-28T11:09:56.236Z,54
2022-08-28T11:19:56.877Z,53
2022-08-28T11:29:57.679Z,52
2022-08-28T11:39:58.693Z,52
2022-08-28T11:49:59.357Z,50
2022-08-28T12:00:00.193Z,51
2022-08-28T12:10:04.364Z,49
2022-08-28T12:20:01.520Z,49
2022-08-28T12:30:02.388Z,50
2022-08-28T12:40:03.138Z,49
2022-08-28T12:50:03.114Z,50
2022-08-28T13:00:03.855Z,50
2022-08-28T13:10:04.266Z,47
2022-08-28T13:30:05.745Z,48
2022-08-28T13:40:10.835Z,46
2022-08-28T13:50:06.073Z,47
2022-08-28T14:00:06.495Z,45
2022-08-28T14:10:06.689Z,46
2022-08-28T14:20:07.005Z,46
2022-08-28T14:30:07.117Z,45
2022-08-28T14:40:07.929Z,44
2022-08-28T14:50:08.967Z,45
2022-08-28T15:00:09.073Z,44
2022-08-28T15:10:09.540Z,44
2022-08-28T15:20:09.740Z,44
2022-08-28T15:40:10.912Z,45
2022-08-28T15:50:11.581Z,45
2022-08-28T16:00:12.024Z,47
2022-08-28T16:10:12.500Z,47
2022-08-28T16:20:13.390Z,48
2022-08-28T16:40:14.492Z,48
2022-08-28T16:50:14.246Z,48
2022-08-28T17:00:15.190Z,48
2022-08-28T17:10:15.598Z,48
2022-08-28T17:20:16.311Z,48
2022-08-28T17:30:16.670Z,50
2022-08-28T17:40:17.194Z,50
2022-08-28T17:50:17.836Z,50
2022-08-28T18:00:18.885Z,50
2022-08-28T18:10:19.959Z,51
2022-08-28T18:20:20.254Z,51
2022-08-28T18:30:21.044Z,52
2022-08-28T18:40:21.246Z,53
2022-08-28T18:50:21.901Z,54
2022-08-28T19:00:22.278Z,55
2022-08-28T19:10:33.211Z,58
2022-08-28T19:20:23.296Z,60
2022-08-28T19:40:23.754Z,64
2022-08-28T19:50:24.595Z,66
2022-08-28T20:00:25.271Z,67
2022-08-28T20:10:25.430Z,68
2022-08-28T20:20:29.835Z,68
2022-08-28T20:30:27.461Z,69
2022-08-28T20:40:28.580Z,70
2022-08-28T20:50:28.632Z,70
2022-08-28T21:00:29.496Z,71
2022-08-28T21:10:30.053Z,71
2022-08-28T21:20:30.544Z,72
2022-08-28T21:30:31.298Z,72
2022-08-28T21:40:31.562Z,73
2022-08-28T21:50:32.347Z,74
2022-08-28T22:10:33.561Z,75
2022-08-28T22:20:33.393Z,76
2022-08-28T22:30:34.269Z,76
2022-08-28T22:40:34.675Z,77
2022-08-28T22:50:35.238Z,78
2022-08-28T23:00:36.368Z,79
2022-08-28T23:10:57.871Z,79
2022-08-28T23:20:37.565Z,80
2022-08-28T23:30:37.942Z,80
2022-08-28T23:40:38.164Z,81
2022-08-28T23:50:38.694Z,81
